sensor_id;sensor_type;location;lat;lon;timestamp;P1;durP1;ratioP1;P2;durP2;ratioP2
64667;SDS011;51077;42.716;23.344;2022-07-23T00:00:39;17.95;;;9.07;;
64667;SDS011;51077;42.716;23.344;2022-07-23T00:03:05;17.43;;;9.33;;
64667;SDS011;51077;42.716;23.344;2022-07-23T00:05:32;17.63;;;9.98;;
64667;SDS011;51077;42.716;23.344;2022-07-23T00:07:57;14.87;;;9.33;;
64667;SDS011;51077;42.716;23.344;2022-07-23T00:10:22;14.53;;;9.53;;
64667;SDS011;51077;42.716;23.344;2022-07-23T00:12:48;18.97;;;10.10;;
64667;SDS011;51077;42.716;23.344;2022-07-23T00:15:13;14.63;;;8.97;;
64667;SDS011;51077;42.716;23.344;2022-07-23T00:17:39;15.97;;;9.30;;
64667;SDS011;51077;42.716;23.344;2022-07-23T00:20:04;13.37;;;8.63;;
64667;SDS011;51077;42.716;23.344;2022-07-23T00:22:30;16.80;;;8.82;;
64667;SDS011;51077;42.716;23.344;2022-07-23T00:24:56;11.00;;;7.87;;
64667;SDS011;51077;42.716;23.344;2022-07-23T00:27:21;14.87;;;10.50;;
64667;SDS011;51077;42.716;23.344;2022-07-23T00:29:47;21.50;;;11.77;;
64667;SDS011;51077;42.716;23.344;2022-07-23T00:32:12;19.00;;;11.57;;
64667;SDS011;51077;42.716;23.344;2022-07-23T00:34:38;16.87;;;10.43;;
64667;SDS011;51077;42.716;23.344;2022-07-23T00:37:03;17.43;;;10.47;;
64667;SDS011;51077;42.716;23.344;2022-07-23T00:39:29;18.23;;;10.20;;
64667;SDS011;51077;42.716;23.344;2022-07-23T00:41:54;15.30;;;10.30;;
64667;SDS011;51077;42.716;23.344;2022-07-23T00:44:21;14.43;;;9.60;;
64667;SDS011;51077;42.716;23.344;2022-07-23T00:46:49;14.35;;;8.93;;
64667;SDS011;51077;42.716;23.344;2022-07-23T00:49:19;15.43;;;8.95;;
64667;SDS011;51077;42.716;23.344;2022-07-23T00:51:45;13.93;;;7.82;;
64667;SDS011;51077;42.716;23.344;2022-07-23T00:54:11;12.27;;;7.67;;
64667;SDS011;51077;42.716;23.344;2022-07-23T00:56:37;17.90;;;7.50;;
64667;SDS011;51077;42.716;23.344;2022-07-23T00:59:02;12.00;;;6.72;;
64667;SDS011;51077;42.716;23.344;2022-07-23T01:01:28;11.77;;;6.10;;
64667;SDS011;51077;42.716;23.344;2022-07-23T01:03:53;11.57;;;6.43;;
64667;SDS011;51077;42.716;23.344;2022-07-23T01:06:19;10.43;;;5.63;;
64667;SDS011;51077;42.716;23.344;2022-07-23T01:08:44;8.10;;;5.43;;
64667;SDS011;51077;42.716;23.344;2022-07-23T01:11:10;9.13;;;5.27;;
64667;SDS011;51077;42.716;23.344;2022-07-23T01:13:40;8.40;;;4.53;;
64667;SDS011;51077;42.716;23.344;2022-07-23T01:16:07;8.80;;;4.68;;
64667;SDS011;51077;42.716;23.344;2022-07-23T01:18:32;12.50;;;5.10;;
64667;SDS011;51077;42.716;23.344;2022-07-23T01:20:58;9.23;;;4.80;;
64667;SDS011;51077;42.716;23.344;2022-07-23T01:23:23;11.03;;;4.90;;
64667;SDS011;51077;42.716;23.344;2022-07-23T01:25:49;9.37;;;5.10;;
64667;SDS011;51077;42.716;23.344;2022-07-23T01:28:17;7.63;;;4.93;;
64667;SDS011;51077;42.716;23.344;2022-07-23T01:30:42;10.27;;;5.30;;
64667;SDS011;51077;42.716;23.344;2022-07-23T01:33:08;10.73;;;6.00;;
64667;SDS011;51077;42.716;23.344;2022-07-23T01:35:33;10.63;;;5.70;;
64667;SDS011;51077;42.716;23.344;2022-07-23T01:37:59;10.87;;;6.00;;
64667;SDS011;51077;42.716;23.344;2022-07-23T01:40:24;11.93;;;6.63;;
64667;SDS011;51077;42.716;23.344;2022-07-23T01:42:49;9.63;;;6.67;;
64667;SDS011;51077;42.716;23.344;2022-07-23T01:45:15;10.70;;;6.90;;
64667;SDS011;51077;42.716;23.344;2022-07-23T01:47:40;11.67;;;7.70;;
64667;SDS011;51077;42.716;23.344;2022-07-23T01:50:06;13.50;;;8.73;;
64667;SDS011;51077;42.716;23.344;2022-07-23T01:52:32;16.83;;;8.77;;
64667;SDS011;51077;42.716;23.344;2022-07-23T01:54:57;15.87;;;9.13;;
64667;SDS011;51077;42.716;23.344;2022-07-23T01:57:22;18.13;;;11.00;;
64667;SDS011;51077;42.716;23.344;2022-07-23T01:59:48;17.63;;;9.70;;
64667;SDS011;51077;42.716;23.344;2022-07-23T02:02:13;16.97;;;9.93;;
64667;SDS011;51077;42.716;23.344;2022-07-23T02:04:39;13.63;;;9.10;;
64667;SDS011;51077;42.716;23.344;2022-07-23T02:07:04;15.47;;;9.30;;
64667;SDS011;51077;42.716;23.344;2022-07-23T02:09:30;18.05;;;9.13;;
64667;SDS011;51077;42.716;23.344;2022-07-23T02:11:56;13.63;;;7.70;;
64667;SDS011;51077;42.716;23.344;2022-07-23T02:14:22;16.42;;;7.78;;
64667;SDS011;51077;42.716;23.344;2022-07-23T02:16:48;13.52;;;6.70;;
64667;SDS011;51077;42.716;23.344;2022-07-23T02:19:14;12.07;;;8.27;;
64667;SDS011;51077;42.716;23.344;2022-07-23T02:21:39;10.13;;;6.50;;
64667;SDS011;51077;42.716;23.344;2022-07-23T02:24:05;11.23;;;6.73;;
64667;SDS011;51077;42.716;23.344;2022-07-23T02:26:30;13.93;;;6.60;;
64667;SDS011;51077;42.716;23.344;2022-07-23T02:28:59;12.15;;;6.80;;
64667;SDS011;51077;42.716;23.344;2022-07-23T02:31:25;11.97;;;6.13;;
64667;SDS011;51077;42.716;23.344;2022-07-23T02:33:50;10.67;;;6.80;;
64667;SDS011;51077;42.716;23.344;2022-07-23T02:36:16;9.10;;;6.33;;
64667;SDS011;51077;42.716;23.344;2022-07-23T02:38:41;11.47;;;6.17;;
64667;SDS011;51077;42.716;23.344;2022-07-23T02:41:07;10.70;;;6.43;;
64667;SDS011;51077;42.716;23.344;2022-07-23T02:43:32;9.03;;;6.03;;
64667;SDS011;51077;42.716;23.344;2022-07-23T02:45:57;8.90;;;5.23;;
64667;SDS011;51077;42.716;23.344;2022-07-23T02:48:23;12.30;;;5.97;;
64667;SDS011;51077;42.716;23.344;2022-07-23T02:50:48;8.17;;;5.33;;
64667;SDS011;51077;42.716;23.344;2022-07-23T02:53:14;11.10;;;5.57;;
64667;SDS011;51077;42.716;23.344;2022-07-23T02:55:39;10.07;;;6.20;;
64667;SDS011;51077;42.716;23.344;2022-07-23T02:58:04;9.33;;;5.77;;
64667;SDS011;51077;42.716;23.344;2022-07-23T03:00:30;10.83;;;5.83;;
64667;SDS011;51077;42.716;23.344;2022-07-23T03:02:55;11.07;;;5.53;;
64667;SDS011;51077;42.716;23.344;2022-07-23T03:05:20;12.50;;;6.10;;
64667;SDS011;51077;42.716;23.344;2022-07-23T03:07:46;7.83;;;5.50;;
64667;SDS011;51077;42.716;23.344;2022-07-23T03:10:11;8.03;;;5.17;;
64667;SDS011;51077;42.716;23.344;2022-07-23T03:12:37;10.17;;;5.50;;
64667;SDS011;51077;42.716;23.344;2022-07-23T03:15:02;13.47;;;5.83;;
64667;SDS011;51077;42.716;23.344;2022-07-23T03:17:28;10.70;;;5.70;;
64667;SDS011;51077;42.716;23.344;2022-07-23T03:19:53;13.03;;;6.60;;
64667;SDS011;51077;42.716;23.344;2022-07-23T03:22:19;10.83;;;6.10;;
64667;SDS011;51077;42.716;23.344;2022-07-23T03:24:44;9.57;;;5.27;;
64667;SDS011;51077;42.716;23.344;2022-07-23T03:29:44;10.07;;;5.17;;
64667;SDS011;51077;42.716;23.344;2022-07-23T03:32:09;9.47;;;5.63;;
64667;SDS011;51077;42.716;23.344;2022-07-23T03:34:35;9.63;;;5.60;;
64667;SDS011;51077;42.716;23.344;2022-07-23T03:37:01;11.37;;;5.77;;
64667;SDS011;51077;42.716;23.344;2022-07-23T03:39:26;9.17;;;5.20;;
64667;SDS011;51077;42.716;23.344;2022-07-23T03:41:52;10.27;;;5.97;;
64667;SDS011;51077;42.716;23.344;2022-07-23T03:44:17;9.60;;;5.90;;
64667;SDS011;51077;42.716;23.344;2022-07-23T03:46:43;11.70;;;5.23;;
64667;SDS011;51077;42.716;23.344;2022-07-23T03:49:08;11.00;;;5.57;;
64667;SDS011;51077;42.716;23.344;2022-07-23T03:51:34;10.03;;;6.23;;
64667;SDS011;51077;42.716;23.344;2022-07-23T03:53:59;13.00;;;6.00;;
64667;SDS011;51077;42.716;23.344;2022-07-23T03:56:25;12.70;;;5.83;;
64667;SDS011;51077;42.716;23.344;2022-07-23T03:58:51;10.40;;;6.30;;
64667;SDS011;51077;42.716;23.344;2022-07-23T04:01:16;10.60;;;6.20;;
64667;SDS011;51077;42.716;23.344;2022-07-23T04:03:42;12.20;;;6.17;;
64667;SDS011;51077;42.716;23.344;2022-07-23T04:06:07;12.60;;;5.73;;
64667;SDS011;51077;42.716;23.344;2022-07-23T04:08:33;10.40;;;5.63;;
64667;SDS011;51077;42.716;23.344;2022-07-23T04:10:58;10.10;;;5.70;;
64667;SDS011;51077;42.716;23.344;2022-07-23T04:13:23;7.60;;;5.63;;
64667;SDS011;51077;42.716;23.344;2022-07-23T04:15:49;11.43;;;6.13;;
64667;SDS011;51077;42.716;23.344;2022-07-23T04:18:15;17.35;;;6.10;;
64667;SDS011;51077;42.716;23.344;2022-07-23T04:20:47;11.73;;;6.20;;
64667;SDS011;51077;42.716;23.344;2022-07-23T04:23:12;16.20;;;5.87;;
64667;SDS011;51077;42.716;23.344;2022-07-23T04:25:38;10.77;;;5.90;;
64667;SDS011;51077;42.716;23.344;2022-07-23T04:28:03;10.80;;;5.83;;
64667;SDS011;51077;42.716;23.344;2022-07-23T04:30:28;10.07;;;5.23;;
64667;SDS011;51077;42.716;23.344;2022-07-23T04:32:54;9.93;;;5.80;;
64667;SDS011;51077;42.716;23.344;2022-07-23T04:35:19;9.63;;;5.43;;
64667;SDS011;51077;42.716;23.344;2022-07-23T04:37:45;9.90;;;5.60;;
64667;SDS011;51077;42.716;23.344;2022-07-23T04:40:11;9.13;;;5.63;;
64667;SDS011;51077;42.716;23.344;2022-07-23T04:42:37;10.27;;;5.80;;
64667;SDS011;51077;42.716;23.344;2022-07-23T04:45:03;11.07;;;4.90;;
64667;SDS011;51077;42.716;23.344;2022-07-23T04:47:29;8.33;;;5.80;;
64667;SDS011;51077;42.716;23.344;2022-07-23T04:49:55;9.80;;;5.55;;
64667;SDS011;51077;42.716;23.344;2022-07-23T04:52:21;10.32;;;5.63;;
64667;SDS011;51077;42.716;23.344;2022-07-23T04:54:47;8.37;;;5.13;;
64667;SDS011;51077;42.716;23.344;2022-07-23T04:57:12;9.50;;;5.47;;
64667;SDS011;51077;42.716;23.344;2022-07-23T04:59:38;10.20;;;5.67;;
64667;SDS011;51077;42.716;23.344;2022-07-23T05:02:03;12.60;;;5.50;;
64667;SDS011;51077;42.716;23.344;2022-07-23T05:04:29;9.87;;;5.47;;
64667;SDS011;51077;42.716;23.344;2022-07-23T05:06:54;10.90;;;5.60;;
64667;SDS011;51077;42.716;23.344;2022-07-23T05:09:20;8.27;;;5.37;;
64667;SDS011;51077;42.716;23.344;2022-07-23T05:11:45;10.30;;;5.37;;
64667;SDS011;51077;42.716;23.344;2022-07-23T05:14:11;11.17;;;5.77;;
64667;SDS011;51077;42.716;23.344;2022-07-23T05:16:37;10.85;;;5.78;;
64667;SDS011;51077;42.716;23.344;2022-07-23T05:19:03;12.90;;;6.50;;
64667;SDS011;51077;42.716;23.344;2022-07-23T05:21:29;14.17;;;5.87;;
64667;SDS011;51077;42.716;23.344;2022-07-23T05:23:54;11.83;;;5.70;;
64667;SDS011;51077;42.716;23.344;2022-07-23T05:26:20;16.77;;;6.87;;
64667;SDS011;51077;42.716;23.344;2022-07-23T05:28:45;10.50;;;5.03;;
64667;SDS011;51077;42.716;23.344;2022-07-23T05:31:11;9.87;;;6.10;;
64667;SDS011;51077;42.716;23.344;2022-07-23T05:33:36;8.43;;;5.33;;
64667;SDS011;51077;42.716;23.344;2022-07-23T05:36:02;10.20;;;6.30;;
64667;SDS011;51077;42.716;23.344;2022-07-23T05:38:28;9.15;;;6.13;;
64667;SDS011;51077;42.716;23.344;2022-07-23T05:40:53;14.23;;;6.90;;
64667;SDS011;51077;42.716;23.344;2022-07-23T05:43:19;8.33;;;5.87;;
64667;SDS011;51077;42.716;23.344;2022-07-23T05:45:44;10.20;;;6.47;;
64667;SDS011;51077;42.716;23.344;2022-07-23T05:48:10;11.83;;;6.00;;
64667;SDS011;51077;42.716;23.344;2022-07-23T05:50:35;12.37;;;6.23;;
64667;SDS011;51077;42.716;23.344;2022-07-23T05:53:00;11.70;;;6.10;;
64667;SDS011;51077;42.716;23.344;2022-07-23T05:55:26;11.40;;;6.17;;
64667;SDS011;51077;42.716;23.344;2022-07-23T05:57:54;11.93;;;6.45;;
64667;SDS011;51077;42.716;23.344;2022-07-23T06:00:20;13.73;;;6.47;;
64667;SDS011;51077;42.716;23.344;2022-07-23T06:02:46;12.77;;;6.27;;
64667;SDS011;51077;42.716;23.344;2022-07-23T06:05:11;16.17;;;7.40;;
64667;SDS011;51077;42.716;23.344;2022-07-23T06:07:36;11.77;;;7.13;;
64667;SDS011;51077;42.716;23.344;2022-07-23T06:10:02;13.87;;;6.80;;
64667;SDS011;51077;42.716;23.344;2022-07-23T06:12:29;19.05;;;7.82;;
64667;SDS011;51077;42.716;23.344;2022-07-23T06:14:54;16.87;;;7.40;;
64667;SDS011;51077;42.716;23.344;2022-07-23T06:17:20;16.67;;;8.50;;
64667;SDS011;51077;42.716;23.344;2022-07-23T06:19:45;17.77;;;7.20;;
64667;SDS011;51077;42.716;23.344;2022-07-23T06:22:10;14.50;;;7.73;;
64667;SDS011;51077;42.716;23.344;2022-07-23T06:24:36;17.57;;;7.00;;
64667;SDS011;51077;42.716;23.344;2022-07-23T06:27:02;20.60;;;7.63;;
64667;SDS011;51077;42.716;23.344;2022-07-23T06:29:28;12.93;;;6.53;;
64667;SDS011;51077;42.716;23.344;2022-07-23T06:31:53;15.97;;;6.77;;
64667;SDS011;51077;42.716;23.344;2022-07-23T06:34:19;16.57;;;7.93;;
64667;SDS011;51077;42.716;23.344;2022-07-23T06:36:44;17.50;;;6.87;;
64667;SDS011;51077;42.716;23.344;2022-07-23T06:39:10;12.90;;;6.63;;
64667;SDS011;51077;42.716;23.344;2022-07-23T06:41:35;12.00;;;5.60;;
64667;SDS011;51077;42.716;23.344;2022-07-23T06:44:01;15.23;;;6.65;;
64667;SDS011;51077;42.716;23.344;2022-07-23T06:46:27;12.30;;;7.50;;
64667;SDS011;51077;42.716;23.344;2022-07-23T06:48:52;10.27;;;5.53;;
64667;SDS011;51077;42.716;23.344;2022-07-23T06:51:18;12.73;;;6.20;;
64667;SDS011;51077;42.716;23.344;2022-07-23T06:53:43;8.63;;;6.03;;
64667;SDS011;51077;42.716;23.344;2022-07-23T06:56:09;13.87;;;6.70;;
64667;SDS011;51077;42.716;23.344;2022-07-23T06:58:34;14.77;;;6.33;;
64667;SDS011;51077;42.716;23.344;2022-07-23T07:01:00;12.90;;;6.33;;
64667;SDS011;51077;42.716;23.344;2022-07-23T07:03:25;12.03;;;6.17;;
64667;SDS011;51077;42.716;23.344;2022-07-23T07:05:50;12.23;;;6.47;;
64667;SDS011;51077;42.716;23.344;2022-07-23T07:08:17;7.55;;;5.15;;
64667;SDS011;51077;42.716;23.344;2022-07-23T07:10:42;7.87;;;5.47;;
64667;SDS011;51077;42.716;23.344;2022-07-23T07:13:07;8.80;;;5.70;;
64667;SDS011;51077;42.716;23.344;2022-07-23T07:15:33;11.37;;;5.47;;
64667;SDS011;51077;42.716;23.344;2022-07-23T07:17:58;12.53;;;5.70;;
64667;SDS011;51077;42.716;23.344;2022-07-23T07:20:24;13.57;;;5.77;;
64667;SDS011;51077;42.716;23.344;2022-07-23T07:22:49;14.23;;;6.17;;
64667;SDS011;51077;42.716;23.344;2022-07-23T07:25:15;10.87;;;6.33;;
64667;SDS011;51077;42.716;23.344;2022-07-23T07:27:40;10.13;;;5.97;;
64667;SDS011;51077;42.716;23.344;2022-07-23T07:30:06;11.97;;;5.37;;
64667;SDS011;51077;42.716;23.344;2022-07-23T07:32:32;9.20;;;5.15;;
64667;SDS011;51077;42.716;23.344;2022-07-23T07:34:58;10.87;;;5.77;;
64667;SDS011;51077;42.716;23.344;2022-07-23T07:37:23;12.67;;;5.57;;
64667;SDS011;51077;42.716;23.344;2022-07-23T07:39:49;9.53;;;5.80;;
64667;SDS011;51077;42.716;23.344;2022-07-23T07:42:14;10.80;;;5.50;;
64667;SDS011;51077;42.716;23.344;2022-07-23T07:44:40;10.27;;;5.07;;
64667;SDS011;51077;42.716;23.344;2022-07-23T07:47:05;9.40;;;4.90;;
64667;SDS011;51077;42.716;23.344;2022-07-23T07:49:31;13.83;;;6.43;;
64667;SDS011;51077;42.716;23.344;2022-07-23T07:51:57;10.03;;;6.40;;
64667;SDS011;51077;42.716;23.344;2022-07-23T07:54:22;11.50;;;5.50;;
64667;SDS011;51077;42.716;23.344;2022-07-23T07:56:47;10.87;;;5.67;;
64667;SDS011;51077;42.716;23.344;2022-07-23T07:59:13;13.27;;;5.80;;
64667;SDS011;51077;42.716;23.344;2022-07-23T08:01:39;11.77;;;5.60;;
64667;SDS011;51077;42.716;23.344;2022-07-23T08:04:05;12.47;;;5.27;;
64667;SDS011;51077;42.716;23.344;2022-07-23T08:06:30;10.60;;;5.67;;
64667;SDS011;51077;42.716;23.344;2022-07-23T08:08:56;12.03;;;5.37;;
64667;SDS011;51077;42.716;23.344;2022-07-23T08:11:21;11.83;;;5.47;;
64667;SDS011;51077;42.716;23.344;2022-07-23T08:13:47;14.37;;;5.47;;
64667;SDS011;51077;42.716;23.344;2022-07-23T08:16:13;10.57;;;5.43;;
64667;SDS011;51077;42.716;23.344;2022-07-23T08:18:38;11.23;;;5.70;;
64667;SDS011;51077;42.716;23.344;2022-07-23T08:21:03;11.83;;;5.77;;
64667;SDS011;51077;42.716;23.344;2022-07-23T08:23:30;10.27;;;5.50;;
64667;SDS011;51077;42.716;23.344;2022-07-23T08:25:56;11.10;;;5.57;;
64667;SDS011;51077;42.716;23.344;2022-07-23T08:28:22;8.77;;;4.90;;
64667;SDS011;51077;42.716;23.344;2022-07-23T08:30:48;10.00;;;5.23;;
64667;SDS011;51077;42.716;23.344;2022-07-23T08:33:14;10.73;;;5.30;;
64667;SDS011;51077;42.716;23.344;2022-07-23T08:35:42;11.20;;;5.20;;
64667;SDS011;51077;42.716;23.344;2022-07-23T08:38:15;15.17;;;4.93;;
64667;SDS011;51077;42.716;23.344;2022-07-23T08:40:46;11.53;;;4.87;;
64667;SDS011;51077;42.716;23.344;2022-07-23T08:43:14;13.00;;;5.13;;
64667;SDS011;51077;42.716;23.344;2022-07-23T08:45:42;10.57;;;6.57;;
64667;SDS011;51077;42.716;23.344;2022-07-23T08:48:13;12.00;;;5.97;;
64667;SDS011;51077;42.716;23.344;2022-07-23T08:50:46;12.33;;;5.87;;
64667;SDS011;51077;42.716;23.344;2022-07-23T08:53:14;13.13;;;5.70;;
64667;SDS011;51077;42.716;23.344;2022-07-23T08:55:43;9.27;;;5.00;;
64667;SDS011;51077;42.716;23.344;2022-07-23T08:58:12;8.80;;;4.77;;
64667;SDS011;51077;42.716;23.344;2022-07-23T09:00:38;10.87;;;5.20;;
64667;SDS011;51077;42.716;23.344;2022-07-23T09:03:04;10.03;;;5.07;;
64667;SDS011;51077;42.716;23.344;2022-07-23T09:05:29;7.97;;;4.57;;
64667;SDS011;51077;42.716;23.344;2022-07-23T09:10:47;13.27;;;4.90;;
64667;SDS011;51077;42.716;23.344;2022-07-23T09:13:31;7.23;;;4.80;;
64667;SDS011;51077;42.716;23.344;2022-07-23T09:16:08;8.63;;;4.85;;
64667;SDS011;51077;42.716;23.344;2022-07-23T09:26:30;8.60;;;4.80;;
64667;SDS011;51077;42.716;23.344;2022-07-23T09:31:25;12.17;;;5.20;;
64667;SDS011;51077;42.716;23.344;2022-07-23T09:34:05;11.97;;;4.43;;
64667;SDS011;51077;42.716;23.344;2022-07-23T09:36:33;8.60;;;4.87;;
64667;SDS011;51077;42.716;23.344;2022-07-23T09:38:59;12.50;;;4.97;;
64667;SDS011;51077;42.716;23.344;2022-07-23T09:41:24;9.47;;;4.27;;
64667;SDS011;51077;42.716;23.344;2022-07-23T09:43:54;9.03;;;4.37;;
64667;SDS011;51077;42.716;23.344;2022-07-23T09:46:26;7.87;;;4.47;;
64667;SDS011;51077;42.716;23.344;2022-07-23T09:48:53;10.00;;;4.82;;
64667;SDS011;51077;42.716;23.344;2022-07-23T09:51:21;11.23;;;4.33;;
64667;SDS011;51077;42.716;23.344;2022-07-23T09:54:02;8.13;;;4.90;;
64667;SDS011;51077;42.716;23.344;2022-07-23T09:56:29;10.03;;;4.23;;
64667;SDS011;51077;42.716;23.344;2022-07-23T09:58:54;11.87;;;4.40;;
64667;SDS011;51077;42.716;23.344;2022-07-23T10:01:35;9.40;;;4.67;;
64667;SDS011;51077;42.716;23.344;2022-07-23T10:04:01;9.77;;;4.77;;
64667;SDS011;51077;42.716;23.344;2022-07-23T10:06:27;9.63;;;4.47;;
64667;SDS011;51077;42.716;23.344;2022-07-23T10:08:54;8.70;;;4.57;;
64667;SDS011;51077;42.716;23.344;2022-07-23T10:11:23;11.70;;;4.53;;
64667;SDS011;51077;42.716;23.344;2022-07-23T10:13:50;7.27;;;4.30;;
64667;SDS011;51077;42.716;23.344;2022-07-23T10:16:27;9.83;;;3.90;;
64667;SDS011;51077;42.716;23.344;2022-07-23T10:18:52;12.10;;;4.40;;
64667;SDS011;51077;42.716;23.344;2022-07-23T10:21:21;10.53;;;4.27;;
64667;SDS011;51077;42.716;23.344;2022-07-23T10:24:25;7.50;;;4.63;;
64667;SDS011;51077;42.716;23.344;2022-07-23T10:26:53;6.77;;;4.40;;
64667;SDS011;51077;42.716;23.344;2022-07-23T10:32:04;8.37;;;3.87;;
64667;SDS011;51077;42.716;23.344;2022-07-23T10:37:39;9.40;;;4.20;;
64667;SDS011;51077;42.716;23.344;2022-07-23T10:40:13;8.37;;;4.70;;
64667;SDS011;51077;42.716;23.344;2022-07-23T10:45:22;9.73;;;4.10;;
64667;SDS011;51077;42.716;23.344;2022-07-23T10:48:11;8.37;;;4.20;;
64667;SDS011;51077;42.716;23.344;2022-07-23T10:50:41;8.70;;;4.10;;
64667;SDS011;51077;42.716;23.344;2022-07-23T10:55:38;8.67;;;3.80;;
64667;SDS011;51077;42.716;23.344;2022-07-23T10:58:06;12.67;;;3.97;;
64667;SDS011;51077;42.716;23.344;2022-07-23T11:00:32;7.40;;;3.97;;
64667;SDS011;51077;42.716;23.344;2022-07-23T11:03:00;9.60;;;4.40;;
64667;SDS011;51077;42.716;23.344;2022-07-23T11:05:38;11.33;;;4.70;;
64667;SDS011;51077;42.716;23.344;2022-07-23T11:10:38;8.43;;;4.30;;
64667;SDS011;51077;42.716;23.344;2022-07-23T11:13:31;8.43;;;4.22;;
64667;SDS011;51077;42.716;23.344;2022-07-23T11:31:58;9.53;;;3.73;;
64667;SDS011;51077;42.716;23.344;2022-07-23T11:34:31;9.77;;;3.90;;
64667;SDS011;51077;42.716;23.344;2022-07-23T11:36:57;12.07;;;4.63;;
64667;SDS011;51077;42.716;23.344;2022-07-23T11:39:27;8.83;;;3.70;;
64667;SDS011;51077;42.716;23.344;2022-07-23T11:41:54;10.70;;;4.03;;
64667;SDS011;51077;42.716;23.344;2022-07-23T11:44:24;12.60;;;4.00;;
64667;SDS011;51077;42.716;23.344;2022-07-23T11:46:57;10.43;;;3.67;;
64667;SDS011;51077;42.716;23.344;2022-07-23T11:49:33;9.70;;;3.50;;
64667;SDS011;51077;42.716;23.344;2022-07-23T11:54:28;12.13;;;4.47;;
64667;SDS011;51077;42.716;23.344;2022-07-23T11:57:00;10.10;;;4.33;;
64667;SDS011;51077;42.716;23.344;2022-07-23T11:59:27;10.55;;;3.97;;
64667;SDS011;51077;42.716;23.344;2022-07-23T12:01:59;10.07;;;3.87;;
64667;SDS011;51077;42.716;23.344;2022-07-23T12:09:52;8.23;;;3.60;;
64667;SDS011;51077;42.716;23.344;2022-07-23T12:12:18;9.77;;;3.87;;
64667;SDS011;51077;42.716;23.344;2022-07-23T12:14:51;10.10;;;3.60;;
64667;SDS011;51077;42.716;23.344;2022-07-23T12:17:18;13.57;;;4.20;;
64667;SDS011;51077;42.716;23.344;2022-07-23T12:19:45;8.60;;;3.80;;
64667;SDS011;51077;42.716;23.344;2022-07-23T12:22:12;11.23;;;4.07;;
64667;SDS011;51077;42.716;23.344;2022-07-23T12:24:58;10.17;;;4.97;;
64667;SDS011;51077;42.716;23.344;2022-07-23T12:27:25;7.83;;;3.70;;
64667;SDS011;51077;42.716;23.344;2022-07-23T12:29:51;11.10;;;4.17;;
64667;SDS011;51077;42.716;23.344;2022-07-23T12:37:36;13.67;;;4.43;;
64667;SDS011;51077;42.716;23.344;2022-07-23T12:40:19;8.90;;;3.60;;
64667;SDS011;51077;42.716;23.344;2022-07-23T12:42:50;14.10;;;4.03;;
64667;SDS011;51077;42.716;23.344;2022-07-23T12:45:18;10.47;;;4.00;;
64667;SDS011;51077;42.716;23.344;2022-07-23T12:47:57;7.17;;;3.13;;
64667;SDS011;51077;42.716;23.344;2022-07-23T12:51:17;12.57;;;4.20;;
64667;SDS011;51077;42.716;23.344;2022-07-23T12:53:24;9.40;;;4.07;;
64667;SDS011;51077;42.716;23.344;2022-07-23T12:55:57;10.73;;;4.13;;
64667;SDS011;51077;42.716;23.344;2022-07-23T13:01:08;11.37;;;4.03;;
64667;SDS011;51077;42.716;23.344;2022-07-23T13:03:36;11.30;;;4.30;;
64667;SDS011;51077;42.716;23.344;2022-07-23T13:06:04;10.03;;;4.40;;
64667;SDS011;51077;42.716;23.344;2022-07-23T13:08:32;10.30;;;4.93;;
64667;SDS011;51077;42.716;23.344;2022-07-23T13:10:59;9.77;;;3.50;;
64667;SDS011;51077;42.716;23.344;2022-07-23T13:13:26;9.73;;;3.50;;
64667;SDS011;51077;42.716;23.344;2022-07-23T13:15:53;9.30;;;4.03;;
64667;SDS011;51077;42.716;23.344;2022-07-23T13:18:19;11.87;;;3.83;;
64667;SDS011;51077;42.716;23.344;2022-07-23T13:20:46;10.60;;;4.10;;
64667;SDS011;51077;42.716;23.344;2022-07-23T13:23:12;8.03;;;3.43;;
64667;SDS011;51077;42.716;23.344;2022-07-23T13:25:38;8.77;;;3.57;;
64667;SDS011;51077;42.716;23.344;2022-07-23T13:28:04;10.47;;;3.97;;
64667;SDS011;51077;42.716;23.344;2022-07-23T13:30:30;13.30;;;4.07;;
64667;SDS011;51077;42.716;23.344;2022-07-23T13:32:56;14.80;;;3.57;;
64667;SDS011;51077;42.716;23.344;2022-07-23T13:35:22;12.37;;;4.60;;
64667;SDS011;51077;42.716;23.344;2022-07-23T13:37:47;9.93;;;3.40;;
64667;SDS011;51077;42.716;23.344;2022-07-23T13:40:13;8.63;;;3.67;;
64667;SDS011;51077;42.716;23.344;2022-07-23T13:42:39;9.53;;;3.80;;
64667;SDS011;51077;42.716;23.344;2022-07-23T13:45:05;8.43;;;3.73;;
64667;SDS011;51077;42.716;23.344;2022-07-23T13:47:31;13.43;;;3.90;;
64667;SDS011;51077;42.716;23.344;2022-07-23T13:49:56;10.03;;;3.53;;
64667;SDS011;51077;42.716;23.344;2022-07-23T13:52:22;10.77;;;4.00;;
64667;SDS011;51077;42.716;23.344;2022-07-23T13:54:47;9.63;;;3.93;;
64667;SDS011;51077;42.716;23.344;2022-07-23T13:57:13;12.50;;;3.80;;
64667;SDS011;51077;42.716;23.344;2022-07-23T13:59:38;9.83;;;3.43;;
64667;SDS011;51077;42.716;23.344;2022-07-23T14:02:04;9.17;;;3.57;;
64667;SDS011;51077;42.716;23.344;2022-07-23T14:04:29;10.20;;;3.63;;
64667;SDS011;51077;42.716;23.344;2022-07-23T14:06:55;10.77;;;3.63;;
64667;SDS011;51077;42.716;23.344;2022-07-23T14:09:21;12.17;;;4.00;;
64667;SDS011;51077;42.716;23.344;2022-07-23T14:11:47;10.57;;;3.57;;
64667;SDS011;51077;42.716;23.344;2022-07-23T14:14:12;14.30;;;3.97;;
64667;SDS011;51077;42.716;23.344;2022-07-23T14:16:38;11.27;;;4.00;;
64667;SDS011;51077;42.716;23.344;2022-07-23T14:19:03;9.03;;;3.60;;
64667;SDS011;51077;42.716;23.344;2022-07-23T14:21:29;12.17;;;4.10;;
64667;SDS011;51077;42.716;23.344;2022-07-23T14:23:54;10.03;;;4.63;;
64667;SDS011;51077;42.716;23.344;2022-07-23T14:26:20;10.83;;;3.83;;
64667;SDS011;51077;42.716;23.344;2022-07-23T14:28:46;11.70;;;3.90;;
64667;SDS011;51077;42.716;23.344;2022-07-23T14:31:11;9.97;;;3.80;;
64667;SDS011;51077;42.716;23.344;2022-07-23T14:33:37;8.40;;;3.60;;
64667;SDS011;51077;42.716;23.344;2022-07-23T14:36:02;12.73;;;4.10;;
64667;SDS011;51077;42.716;23.344;2022-07-23T14:38:28;12.63;;;4.73;;
64667;SDS011;51077;42.716;23.344;2022-07-23T14:40:55;7.93;;;3.63;;
64667;SDS011;51077;42.716;23.344;2022-07-23T14:43:21;9.93;;;3.37;;
64667;SDS011;51077;42.716;23.344;2022-07-23T14:45:46;9.67;;;4.47;;
64667;SDS011;51077;42.716;23.344;2022-07-23T14:48:12;12.30;;;4.20;;
64667;SDS011;51077;42.716;23.344;2022-07-23T14:50:37;8.33;;;3.70;;
64667;SDS011;51077;42.716;23.344;2022-07-23T14:53:03;9.67;;;3.73;;
64667;SDS011;51077;42.716;23.344;2022-07-23T14:55:30;11.30;;;3.83;;
64667;SDS011;51077;42.716;23.344;2022-07-23T14:57:56;14.33;;;3.90;;
64667;SDS011;51077;42.716;23.344;2022-07-23T15:00:22;9.57;;;4.33;;
64667;SDS011;51077;42.716;23.344;2022-07-23T15:02:47;9.83;;;3.87;;
64667;SDS011;51077;42.716;23.344;2022-07-23T15:05:15;9.33;;;4.07;;
64667;SDS011;51077;42.716;23.344;2022-07-23T15:07:40;8.87;;;3.63;;
64667;SDS011;51077;42.716;23.344;2022-07-23T15:10:06;9.57;;;3.70;;
64667;SDS011;51077;42.716;23.344;2022-07-23T15:12:31;13.83;;;3.50;;
64667;SDS011;51077;42.716;23.344;2022-07-23T15:14:57;10.70;;;4.37;;
64667;SDS011;51077;42.716;23.344;2022-07-23T15:17:22;9.93;;;4.13;;
64667;SDS011;51077;42.716;23.344;2022-07-23T15:19:48;11.70;;;3.93;;
64667;SDS011;51077;42.716;23.344;2022-07-23T15:22:13;9.17;;;3.30;;
64667;SDS011;51077;42.716;23.344;2022-07-23T15:24:39;9.63;;;4.07;;